Time;durP1;ratioP1;P1;durP2;ratioP2;P2;SDS_P1;SDS_P2;PMS_P1;PMS_P2;Temp;Humidity;BMP_temperature;BMP_pressure;BME280_temperature;BME280_humidity;BME280_pressure;Samples;Min_cycle;Max_cycle;Signal;HPM_P1;HPM_P2
2023/08/04 00:00:35;;;;;;;;;;;;;;;;;;5304602;28;19911;-74
2023/08/04 00:03:06;;;;;;;;;;;;;;;;;;5304192;28;19934;-73
2023/08/04 00:05:37;;;;;;;;;;;;;;;;;;5304369;28;20376;-74
2023/08/04 00:08:08;;;;;;;;;;;;;;;;;;5304892;28;19904;-74
2023/08/04 00:10:39;;;;;;;;;;;;;;;;;;5303679;28;19904;-74
2023/08/04 00:13:10;;;;;;;;;;;;;;;;;;5304953;28;20275;-74
2023/08/04 00:15:41;;;;;;;;;;;;;;;;;;5304215;28;19904;-74
2023/08/04 00:18:12;;;;;;;;;;;;;;;;;;5303715;28;19912;-74
2023/08/04 00:20:43;;;;;;;;;;;;;;;;;;5303917;28;20282;-74
2023/08/04 00:23:14;;;;;;;;;;;;;;;;;;5303698;28;19910;-74
2023/08/04 00:25:46;;;;;;;;;;;;;;;;;;5304165;28;19947;-73
2023/08/04 00:28:17;;;;;;;;;;;;;;;;;;5286333;28;19951;-74
2023/08/04 00:30:48;;;;;;;;;;;;;;;;;;5303037;28;19904;-74
2023/08/04 00:33:19;;;;;;;;;;;;;;;;;;5304097;28;20252;-74
2023/08/04 00:35:50;;;;;;;;;;;;;;;;;;5303925;28;19913;-74
2023/08/04 00:38:21;;;;;;;;;;;;;;;;;;5303392;28;19965;-74
2023/08/04 00:40:53;;;;;;;;;;;;;;;;;;5303646;28;19973;-74
2023/08/04 00:43:24;;;;;;;;;;;;;;;;;;5303790;28;19949;-74
2023/08/04 00:45:55;;;;;;;;;;;;;;;;;;5303202;28;19904;-74
2023/08/04 00:48:26;;;;;;;;;;;;;;;;;;5303890;28;19934;-74
2023/08/04 00:50:57;;;;;;;;;;;;;;;;;;5303487;28;19939;-74
2023/08/04 00:53:28;;;;;;;;;;;;;;;;;;5303466;28;19904;-74
2023/08/04 00:55:59;;;;;;;;;;;;;;;;;;5303566;28;19904;-74
2023/08/04 00:58:30;;;;;;;;;;;;;;;;;;5302752;28;19915;-74
2023/08/04 01:01:02;;;;;;;;;;;;;;;;;;5303893;28;19930;-74
2023/08/04 01:03:33;;;;;;;;;;;;;;;;;;5303007;28;20267;-74
2023/08/04 01:06:04;;;;;;;;;;;;;;;;;;5303041;28;19911;-74
2023/08/04 01:08:35;;;;;;;;;;;;;;;;;;5303103;28;20377;-74
2023/08/04 01:11:06;;;;;;;;;;;;;;;;;;5303590;28;19904;-74
2023/08/04 01:13:37;;;;;;;;;;;;;;;;;;5302395;28;19931;-74
2023/08/04 01:16:08;;;;;;;;;;;;;;;;;;5303676;28;19904;-74
2023/08/04 01:18:39;;;;;;;;;;;;;;;;;;5302927;28;19919;-74
2023/08/04 01:21:10;;;;;;;;;;;;;;;;;;5302810;28;20309;-74
2023/08/04 01:23:42;;;;;;;;;;;;;;;;;;5303215;28;19911;-74
2023/08/04 01:26:13;;;;;;;;;;;;;;;;;;5302882;28;19912;-74
2023/08/04 01:28:44;;;;;;;;;;;;;;;;;;5302891;28;19908;-74
2023/08/04 01:31:15;;;;;;;;;;;;;;;;;;5303430;28;19904;-74
2023/08/04 01:33:46;;;;;;;;;;;;;;;;;;5302077;28;19916;-74
2023/08/04 01:36:17;;;;;;;;;;;;;;;;;;5303461;28;19904;-74
2023/08/04 01:38:48;;;;;;;;;;;;;;;;;;5302904;28;20262;-74
2023/08/04 01:41:19;;;;;;;;;;;;;;;;;;5302677;28;19911;-74
2023/08/04 01:43:51;;;;;;;;;;;;;;;;;;5302802;28;19908;-74
2023/08/04 01:46:22;;;;;;;;;;;;;;;;;;5303546;28;19904;-74
2023/08/04 01:48:53;;;;;;;;;;;;;;;;;;5301986;28;20309;-73
2023/08/04 01:51:24;;;;;;;;;;;;;;;;;;5303014;28;19958;-73
2023/08/04 01:53:55;;;;;;;;;;;;;;;;;;5302900;28;20401;-73
2023/08/04 01:56:26;;;;;;;;;;;;;;;;;;5302400;28;19908;-73
2023/08/04 01:58:57;;;;;;;;;;;;;;;;;;5302678;28;19912;-74
2023/08/04 02:01:28;;;;;;;;;;;;;;;;;;5302137;28;20293;-74
2023/08/04 02:03:59;;;;;;;;;;;;;;;;;;5303014;28;19904;-74
2023/08/04 02:06:30;;;;;;;;;;;;;;;;;;5302583;28;20400;-73
2023/08/04 02:09:03;;;;;;;;;;;;;;;;;;5302332;28;19904;-73
2023/08/04 02:11:34;;;;;;;;;;;;;;;;;;5302635;28;20266;-73
2023/08/04 02:14:05;;;;;;;;;;;;;;;;;;5303042;28;19904;-73
2023/08/04 02:16:36;;;;;;;;;;;;;;;;;;5305253;28;19965;-74
2023/08/04 02:19:07;;;;;;;;;;;;;;;;;;5307079;28;19907;-73
2023/08/04 02:21:38;;;;;;;;;;;;;;;;;;5306195;28;19908;-74
2023/08/04 02:24:09;;;;;;;;;;;;;;;;;;5288060;28;19904;-73
2023/08/04 02:26:40;;;;;;;;;;;;;;;;;;5306295;28;19904;-73
2023/08/04 02:29:12;;;;;;;;;;;;;;;;;;5306943;28;20328;-73
2023/08/04 02:31:43;;;;;;;;;;;;;;;;;;5305444;28;19957;-73
2023/08/04 02:34:14;;;;;;;;;;;;;;;;;;5306581;28;19923;-73
2023/08/04 02:36:45;;;;;;;;;;;;;;;;;;5305525;28;19999;-73
2023/08/04 02:39:16;;;;;;;;;;;;;;;;;;5306769;28;19908;-73
2023/08/04 02:41:47;;;;;;;;;;;;;;;;;;5305977;28;19908;-73
2023/08/04 02:44:18;;;;;;;;;;;;;;;;;;5305889;28;19904;-73
2023/08/04 02:46:49;;;;;;;;;;;;;;;;;;5306167;28;19908;-73
2023/08/04 02:49:20;;;;;;;;;;;;;;;;;;5306618;28;19904;-71
2023/08/04 02:51:52;;;;;;;;;;;;;;;;;;5305215;28;19904;-75
2023/08/04 02:54:23;;;;;;;;;;;;;;;;;;5306282;28;19910;-73
2023/08/04 02:56:54;;;;;;;;;;;;;;;;;;5305829;28;19908;-72
2023/08/04 02:59:25;;;;;;;;;;;;;;;;;;5305404;28;19915;-72
2023/08/04 03:01:56;;;;;;;;;;;;;;;;;;5306177;28;19900;-72
2023/08/04 03:04:27;;;;;;;;;;;;;;;;;;5305824;28;19907;-72
2023/08/04 03:06:58;;;;;;;;;;;;;;;;;;5305136;28;19923;-72
2023/08/04 03:09:29;;;;;;;;;;;;;;;;;;5305520;28;19904;-72
2023/08/04 03:12:00;;;;;;;;;;;;;;;;;;5305602;28;19927;-73
2023/08/04 03:14:31;;;;;;;;;;;;;;;;;;5305557;28;19954;-74
2023/08/04 03:17:02;;;;;;;;;;;;;;;;;;5305959;28;20350;-72
2023/08/04 03:19:34;;;;;;;;;;;;;;;;;;5304446;28;20001;-75
2023/08/04 03:22:05;;;;;;;;;;;;;;;;;;5305905;28;19904;-76
2023/08/04 03:24:36;;;;;;;;;;;;;;;;;;5305418;28;19904;-74
2023/08/04 03:27:07;;;;;;;;;;;;;;;;;;5304809;28;19914;-74
2023/08/04 03:29:38;;;;;;;;;;;;;;;;;;5305034;28;19911;-76
2023/08/04 03:32:09;;;;;;;;;;;;;;;;;;5305612;28;19904;-75
2023/08/04 03:34:40;;;;;;;;;;;;;;;;;;5304096;28;19915;-73
2023/08/04 03:37:11;;;;;;;;;;;;;;;;;;5305340;28;19919;-74
2023/08/04 03:39:42;;;;;;;;;;;;;;;;;;5304940;28;20327;-74
2023/08/04 03:42:13;;;;;;;;;;;;;;;;;;5304990;28;19954;-74
2023/08/04 03:44:45;;;;;;;;;;;;;;;;;;5304740;28;19917;-74
2023/08/04 03:47:16;;;;;;;;;;;;;;;;;;5304821;28;19911;-74
2023/08/04 03:49:47;;;;;;;;;;;;;;;;;;5304815;28;20393;-74
2023/08/04 03:52:18;;;;;;;;;;;;;;;;;;5305158;28;20309;-74
2023/08/04 03:54:50;;;;;;;;;;;;;;;;;;5303779;28;19907;-74
2023/08/04 03:57:21;;;;;;;;;;;;;;;;;;5304842;28;19911;-74
2023/08/04 03:59:52;;;;;;;;;;;;;;;;;;5304229;28;19910;-74
2023/08/04 04:02:23;;;;;;;;;;;;;;;;;;5303795;28;20267;-74
2023/08/04 04:04:54;;;;;;;;;;;;;;;;;;5286177;28;19904;-74
2023/08/04 04:07:25;;;;;;;;;;;;;;;;;;5304295;28;19907;-74
2023/08/04 04:09:57;;;;;;;;;;;;;;;;;;5303532;28;19904;-74
2023/08/04 04:12:28;;;;;;;;;;;;;;;;;;5304643;28;19904;-74
2023/08/04 04:14:59;;;;;;;;;;;;;;;;;;5303685;28;19952;-74
2023/08/04 04:17:30;;;;;;;;;;;;;;;;;;5304136;28;20281;-74
2023/08/04 04:20:01;;;;;;;;;;;;;;;;;;5304457;28;19911;-74
2023/08/04 04:22:33;;;;;;;;;;;;;;;;;;5302974;28;19918;-74
2023/08/04 04:25:06;;;;;;;;;;;;;;;;;;5304624;28;19904;-74
2023/08/04 04:27:37;;;;;;;;;;;;;;;;;;5303795;28;19907;-74
2023/08/04 04:30:08;;;;;;;;;;;;;;;;;;5303432;28;19911;-74
2023/08/04 04:32:39;;;;;;;;;;;;;;;;;;5303668;28;19904;-74
2023/08/04 04:35:11;;;;;;;;;;;;;;;;;;5304108;28;19927;-74
2023/08/04 04:37:42;;;;;;;;;;;;;;;;;;5302022;28;19912;-74
2023/08/04 04:40:13;;;;;;;;;;;;;;;;;;5304421;28;20278;-74
2023/08/04 04:42:44;;;;;;;;;;;;;;;;;;5303395;28;19908;-73
2023/08/04 04:45:15;;;;;;;;;;;;;;;;;;5303193;28;19908;-74
2023/08/04 04:47:46;;;;;;;;;;;;;;;;;;5303574;28;20015;-73
2023/08/04 04:50:17;;;;;;;;;;;;;;;;;;5303120;28;19914;-74
2023/08/04 04:52:48;;;;;;;;;;;;;;;;;;5303328;28;19904;-73
2023/08/04 04:55:19;;;;;;;;;;;;;;;;;;5303849;28;19910;-74
2023/08/04 04:57:50;;;;;;;;;;;;;;;;;;5302281;28;19916;-74
2023/08/04 05:00:22;;;;;;;;;;;;;;;;;;5303731;28;19911;-73
2023/08/04 05:02:53;;;;;;;;;;;;;;;;;;5303218;28;19904;-73
2023/08/04 05:05:24;;;;;;;;;;;;;;;;;;5302819;28;19949;-74
2023/08/04 05:07:55;;;;;;;;;;;;;;;;;;5303321;28;19904;-74
2023/08/04 05:10:26;;;;;;;;;;;;;;;;;;5303234;28;19930;-74
2023/08/04 05:12:57;;;;;;;;;;;;;;;;;;5302552;28;19908;-74
2023/08/04 05:15:28;;;;;;;;;;;;;;;;;;5303338;28;19904;-74
2023/08/04 05:17:59;;;;;;;;;;;;;;;;;;5303251;28;19916;-73
2023/08/04 05:20:30;;;;;;;;;;;;;;;;;;5302029;28;19995;-74
2023/08/04 05:23:02;;;;;;;;;;;;;;;;;;5303613;28;20410;-74
2023/08/04 05:25:33;;;;;;;;;;;;;;;;;;5302180;28;19910;-73
2023/08/04 05:28:04;;;;;;;;;;;;;;;;;;5303611;28;19949;-74
2023/08/04 05:30:35;;;;;;;;;;;;;;;;;;5302683;28;19949;-74
2023/08/04 05:33:06;;;;;;;;;;;;;;;;;;5302608;28;19955;-73
2023/08/04 05:35:38;;;;;;;;;;;;;;;;;;5302587;28;20002;-74
2023/08/04 05:38:10;;;;;;;;;;;;;;;;;;5303439;28;20057;-74
2023/08/04 05:40:41;;;;;;;;;;;;;;;;;;5301980;28;19995;-74
2023/08/04 05:43:12;;;;;;;;;;;;;;;;;;5303132;28;20358;-74
2023/08/04 05:45:43;;;;;;;;;;;;;;;;;;5302493;28;19908;-74
2023/08/04 05:48:14;;;;;;;;;;;;;;;;;;5302382;28;19904;-74
2023/08/04 05:50:45;;;;;;;;;;;;;;;;;;5306645;28;20244;-74
2023/08/04 05:53:17;;;;;;;;;;;;;;;;;;5307562;28;19904;-74
2023/08/04 05:55:48;;;;;;;;;;;;;;;;;;5305949;28;19908;-74
2023/08/04 05:58:19;;;;;;;;;;;;;;;;;;5307210;28;20275;-74
2023/08/04 06:00:50;;;;;;;;;;;;;;;;;;5306145;28;19908;-75
2023/08/04 06:03:21;;;;;;;;;;;;;;;;;;5307444;28;19904;-74
2023/08/04 06:05:52;;;;;;;;;;;;;;;;;;5306551;28;19904;-74
2023/08/04 06:08:23;;;;;;;;;;;;;;;;;;5306034;28;19904;-74
2023/08/04 06:10:54;;;;;;;;;;;;;;;;;;5306872;28;19911;-74
2023/08/04 06:13:25;;;;;;;;;;;;;;;;;;5306733;28;19904;-75
2023/08/04 06:15:57;;;;;;;;;;;;;;;;;;5306046;28;20278;-76
2023/08/04 06:18:28;;;;;;;;;;;;;;;;;;5306830;28;19912;-77
2023/08/04 06:20:59;;;;;;;;;;;;;;;;;;5306780;28;19904;-75
2023/08/04 06:23:30;;;;;;;;;;;;;;;;;;5305355;28;19910;-75
2023/08/04 06:26:02;;;;;;;;;;;;;;;;;;5307033;28;19904;-74
2023/08/04 06:28:33;;;;;;;;;;;;;;;;;;5305695;28;19904;-76
2023/08/04 06:31:04;;;;;;;;;;;;;;;;;;5306459;28;19966;-75
2023/08/04 06:33:36;;;;;;;;;;;;;;;;;;5305777;28;20327;-73
2023/08/04 06:36:07;;;;;;;;;;;;;;;;;;5306144;28;20259;-74
2023/08/04 06:38:38;;;;;;;;;;;;;;;;;;5305818;28;19942;-74
2023/08/04 06:41:09;;;;;;;;;;;;;;;;;;5306518;28;20419;-73
2023/08/04 06:43:40;;;;;;;;;;;;;;;;;;5305038;28;19904;-73
2023/08/04 06:46:11;;;;;;;;;;;;;;;;;;5305520;28;19910;-73
2023/08/04 06:48:42;;;;;;;;;;;;;;;;;;5326393;28;19912;-72
2023/08/04 06:51:13;;;;;;;;;;;;;;;;;;5326607;28;19908;-74
2023/08/04 06:53:44;;;;;;;;;;;;;;;;;;5326869;28;20328;-74
2023/08/04 06:56:15;;;;;;;;;;;;;;;;;;5316350;28;19903;-74
2023/08/04 06:58:47;;;;;;;;;;;;;;;;;;5325606;28;20312;-75
2023/08/04 07:01:18;;;;;;;;;;;;;;;;;;5326255;28;19916;-75
2023/08/04 07:03:49;;;;;;;;;;;;;;;;;;5325935;28;20258;-74
2023/08/04 07:06:21;;;;;;;;;;;;;;;;;;5325019;28;19945;-75
2023/08/04 07:08:52;;;;;;;;;;;;;;;;;;5326710;28;19908;-74
2023/08/04 07:11:23;;;;;;;;;;;;;;;;;;5307033;28;19904;-73
2023/08/04 07:13:54;;;;;;;;;;;;;;;;;;5304927;28;19957;-71
2023/08/04 07:16:25;;;;;;;;;;;;;;;;;;5305396;28;20304;-73
2023/08/04 07:18:56;;;;;;;;;;;;;;;;;;5304569;28;19919;-73
2023/08/04 07:21:28;;;;;;;;;;;;;;;;;;5304808;28;19904;-72
2023/08/04 07:23:59;;;;;;;;;;;;;;;;;;5303698;28;19904;-73
2023/08/04 07:26:32;;;;;;;;;;;;;;;;;;5303911;28;19904;-73
2023/08/04 07:29:03;;;;;;;;;;;;;;;;;;5305381;28;19994;-72
2023/08/04 07:31:34;;;;;;;;;;;;;;;;;;5304795;28;20371;-76
2023/08/04 07:34:05;;;;;;;;;;;;;;;;;;5304425;28;19922;-74
2023/08/04 07:36:36;;;;;;;;;;;;;;;;;;5304957;28;19998;-78
2023/08/04 07:39:07;;;;;;;;;;;;;;;;;;5304515;28;19916;-76
2023/08/04 07:41:38;;;;;;;;;;;;;;;;;;5304705;28;19904;-76
2023/08/04 07:44:09;;;;;;;;;;;;;;;;;;5304888;28;19904;-75
2023/08/04 07:46:40;;;;;;;;;;;;;;;;;;5303729;28;20312;-76
2023/08/04 07:49:11;;;;;;;;;;;;;;;;;;5305320;28;20049;-76
2023/08/04 07:51:44;;;;;;;;;;;;;;;;;;5304529;28;20814;-76
2023/08/04 07:54:15;;;;;;;;;;;;;;;;;;5303223;28;19910;-76
2023/08/04 07:56:46;;;;;;;;;;;;;;;;;;5301878;28;20291;-75
2023/08/04 07:59:17;;;;;;;;;;;;;;;;;;5302964;28;19908;-75
2023/08/04 08:01:48;;;;;;;;;;;;;;;;;;5301506;28;19914;-76
2023/08/04 08:04:19;;;;;;;;;;;;;;;;;;5302599;28;19904;-76
2023/08/04 08:06:50;;;;;;;;;;;;;;;;;;5301902;28;19904;-76
2023/08/04 08:09:21;;;;;;;;;;;;;;;;;;5302514;28;19912;-76
2023/08/04 08:11:53;;;;;;;;;;;;;;;;;;5303362;28;19991;-76
2023/08/04 08:14:24;;;;;;;;;;;;;;;;;;5303020;28;20420;-75
2023/08/04 08:16:55;;;;;;;;;;;;;;;;;;5304037;28;19911;-75
2023/08/04 08:19:26;;;;;;;;;;;;;;;;;;5304127;28;19904;-75
2023/08/04 08:21:57;;;;;;;;;;;;;;;;;;5303273;28;20011;-76
2023/08/04 08:24:28;;;;;;;;;;;;;;;;;;5304245;28;20002;-76
2023/08/04 08:26:59;;;;;;;;;;;;;;;;;;5303930;28;19904;-76
2023/08/04 08:29:30;;;;;;;;;;;;;;;;;;5303053;28;19904;-76
2023/08/04 08:32:01;;;;;;;;;;;;;;;;;;5304629;28;19915;-76
2023/08/04 08:34:49;;;;;;;;;;;;;;;;;;5342868;27;19981;-75
2023/08/04 08:37:20;;;;;;;;;;;;;;;;;;5342597;28;19967;-76
2023/08/04 08:39:51;;;;;;;;;;;;;;;;;;5342768;27;19912;-75
2023/08/04 08:42:22;;;;;;;;;;;;;;;;;;5342383;27;20009;-76
2023/08/04 08:44:53;;;;;;;;;;;;;;;;;;5342540;27;19916;-76
2023/08/04 08:47:24;;;;;;;;;;;;;;;;;;5343345;28;19979;-76
2023/08/04 08:49:55;;;;;;;;;;;;;;;;;;5342244;28;19908;-76
2023/08/04 08:52:27;;;;;;;;;;;;;;;;;;5342760;28;20355;-76
2023/08/04 08:54:58;;;;;;;;;;;;;;;;;;5342563;28;19916;-75
2023/08/04 08:57:29;;;;;;;;;;;;;;;;;;5341566;27;20359;-75
2023/08/04 09:00:00;;;;;;;;;;;;;;;;;;5342636;28;19996;-75
2023/08/04 09:02:31;;;;;;;;;;;;;;;;;;5342247;28;19908;-76
2023/08/04 09:05:02;;;;;;;;;;;;;;;;;;5342270;27;19961;-75
2023/08/04 09:07:33;;;;;;;;;;;;;;;;;;5341964;27;19908;-76
2023/08/04 09:10:04;;;;;;;;;;;;;;;;;;5343031;28;19979;-75
2023/08/04 09:12:35;;;;;;;;;;;;;;;;;;5341396;28;19912;-76
2023/08/04 09:15:07;;;;;;;;;;;;;;;;;;5342659;28;20424;-76
2023/08/04 09:17:38;;;;;;;;;;;;;;;;;;5341101;28;19911;-75
2023/08/04 09:20:09;;;;;;;;;;;;;;;;;;5342426;27;19977;-75
2023/08/04 09:22:40;;;;;;;;;;;;;;;;;;5341634;28;19933;-75
2023/08/04 09:25:12;;;;;;;;;;;;;;;;;;5341841;28;19911;-75
2023/08/04 09:27:44;;;;;;;;;;;;;;;;;;5341801;28;19919;-75
2023/08/04 09:30:15;;;;;;;;;;;;;;;;;;5342178;28;19911;-75
2023/08/04 09:32:46;;;;;;;;;;;;;;;;;;5340322;27;19942;-75
2023/08/04 09:35:17;;;;;;;;;;;;;;;;;;5342747;28;19914;-75
2023/08/04 09:37:48;;;;;;;;;;;;;;;;;;5341448;27;19919;-75
2023/08/04 09:40:19;;;;;;;;;;;;;;;;;;5341719;27;20355;-76
2023/08/04 09:42:51;;;;;;;;;;;;;;;;;;5341531;28;19912;-76
2023/08/04 09:45:22;;;;;;;;;;;;;;;;;;5331495;28;19918;-75
2023/08/04 09:47:55;;;;;;;;;;;;;;;;;;5326718;28;19907;-76
2023/08/04 09:50:26;;;;;;;;;;;;;;;;;;5327387;28;20278;-76
2023/08/04 09:52:57;;;;;;;;;;;;;;;;;;5326436;28;19916;-76
2023/08/04 09:55:28;;;;;;;;;;;;;;;;;;5327132;28;19915;-76
2023/08/04 09:57:59;;;;;;;;;;;;;;;;;;5327100;28;19908;-75
2023/08/04 10:00:30;;;;;;;;;;;;;;;;;;5326279;28;19908;-78
2023/08/04 10:03:01;;;;;;;;;;;;;;;;;;5327542;28;19961;-77
2023/08/04 10:05:32;;;;;;;;;;;;;;;;;;5326779;28;20377;-75
2023/08/04 10:08:04;;;;;;;;;;;;;;;;;;5326504;28;19960;-76
2023/08/04 10:10:35;;;;;;;;;;;;;;;;;;5326714;28;20410;-76
2023/08/04 10:13:06;;;;;;;;;;;;;;;;;;5327054;28;19916;-75
2023/08/04 10:15:37;;;;;;;;;;;;;;;;;;5325710;28;20052;-76
2023/08/04 10:18:08;;;;;;;;;;;;;;;;;;5327065;28;19953;-76
2023/08/04 10:20:39;;;;;;;;;;;;;;;;;;5325818;28;20006;-77
2023/08/04 10:23:10;;;;;;;;;;;;;;;;;;5327183;28;20355;-76
2023/08/04 10:25:41;;;;;;;;;;;;;;;;;;5326525;28;19916;-77
2023/08/04 10:28:12;;;;;;;;;;;;;;;;;;5326027;28;19919;-77
2023/08/04 10:30:43;;;;;;;;;;;;;;;;;;5326451;28;19912;-77
2023/08/04 10:33:15;;;;;;;;;;;;;;;;;;5326498;28;19923;-77
2023/08/04 10:35:46;;;;;;;;;;;;;;;;;;5325610;28;19912;-77
2023/08/04 10:38:17;;;;;;;;;;;;;;;;;;5326646;28;19912;-77
2023/08/04 10:40:48;;;;;;;;;;;;;;;;;;5326156;28;20415;-77
2023/08/04 10:43:19;;;;;;;;;;;;;;;;;;5325718;28;20121;-77
2023/08/04 10:45:55;;;;;;;;;;;;;;;;;;5307445;28;19972;-77
2023/08/04 10:48:26;;;;;;;;;;;;;;;;;;5326076;28;19987;-77
2023/08/04 10:50:57;;;;;;;;;;;;;;;;;;5325299;28;19994;-77
2023/08/04 10:53:29;;;;;;;;;;;;;;;;;;5326066;28;19915;-77
2023/08/04 10:56:01;;;;;;;;;;;;;;;;;;5324521;28;19914;-77
2023/08/04 10:58:32;;;;;;;;;;;;;;;;;;5325849;28;19907;-77
2023/08/04 11:01:03;;;;;;;;;;;;;;;;;;5326321;28;20347;-77
2023/08/04 11:03:36;;;;;;;;;;;;;;;;;;5324838;28;19947;-77
2023/08/04 11:06:07;;;;;;;;;;;;;;;;;;5326096;28;19961;-77
2023/08/04 11:08:38;;;;;;;;;;;;;;;;;;5325239;28;20359;-78
2023/08/04 11:11:09;;;;;;;;;;;;;;;;;;5325494;28;19907;-76
2023/08/04 11:13:40;;;;;;;;;;;;;;;;;;5325134;28;20010;-77
2023/08/04 11:16:11;;;;;;;;;;;;;;;;;;5326135;28;20339;-77
2023/08/04 11:18:42;;;;;;;;;;;;;;;;;;5324395;28;19914;-77
2023/08/04 11:21:13;;;;;;;;;;;;;;;;;;5325892;28;19908;-77
2023/08/04 11:23:44;;;;;;;;;;;;;;;;;;5325264;28;20382;-77
2023/08/04 11:26:16;;;;;;;;;;;;;;;;;;5324935;28;19912;-77
2023/08/04 11:28:47;;;;;;;;;;;;;;;;;;5325113;28;20367;-77
2023/08/04 11:31:18;;;;;;;;;;;;;;;;;;5324686;28;19912;-74
2023/08/04 11:33:50;;;;;;;;;;;;;;;;;;5324700;28;20355;-73
2023/08/04 11:36:21;;;;;;;;;;;;;;;;;;5325445;28;20320;-77
2023/08/04 11:38:52;;;;;;;;;;;;;;;;;;5324052;28;19915;-77
2023/08/04 11:41:23;;;;;;;;;;;;;;;;;;5325261;28;19935;-77
2023/08/04 11:43:54;;;;;;;;;;;;;;;;;;5325061;28;19919;-76
2023/08/04 11:46:25;;;;;;;;;;;;;;;;;;5324201;28;20044;-76
2023/08/04 11:48:56;;;;;;;;;;;;;;;;;;5325049;28;20319;-77
2023/08/04 11:51:27;;;;;;;;;;;;;;;;;;5324885;28;19908;-77
2023/08/04 11:53:58;;;;;;;;;;;;;;;;;;5323944;28;19916;-76
2023/08/04 11:56:29;;;;;;;;;;;;;;;;;;5324012;28;19907;-76
2023/08/04 11:59:01;;;;;;;;;;;;;;;;;;5325393;28;19914;-76
2023/08/04 12:01:34;;;;;;;;;;;;;;;;;;5323769;28;19908;-75
2023/08/04 12:04:05;;;;;;;;;;;;;;;;;;5324946;28;19912;-77
2023/08/04 12:06:37;;;;;;;;;;;;;;;;;;5323520;28;19914;-77
2023/08/04 12:09:08;;;;;;;;;;;;;;;;;;5323519;28;19908;-76
2023/08/04 12:11:39;;;;;;;;;;;;;;;;;;5324299;28;19933;-76
2023/08/04 12:14:10;;;;;;;;;;;;;;;;;;5323951;28;19923;-76
2023/08/04 12:16:42;;;;;;;;;;;;;;;;;;5324080;28;19908;-76
2023/08/04 12:19:13;;;;;;;;;;;;;;;;;;5324723;28;19915;-74
2023/08/04 12:21:44;;;;;;;;;;;;;;;;;;5323245;28;20002;-73
2023/08/04 12:24:15;;;;;;;;;;;;;;;;;;5324645;28;19908;-74
2023/08/04 12:26:46;;;;;;;;;;;;;;;;;;5323896;28;19908;-74
2023/08/04 12:29:17;;;;;;;;;;;;;;;;;;5323852;28;20324;-76
2023/08/04 12:31:49;;;;;;;;;;;;;;;;;;5323813;28;19911;-75
2023/08/04 12:34:20;;;;;;;;;;;;;;;;;;5323161;28;20002;-75
2023/08/04 12:36:51;;;;;;;;;;;;;;;;;;5324044;28;19908;-75
2023/08/04 12:39:22;;;;;;;;;;;;;;;;;;5324617;28;20457;-75
2023/08/04 12:41:53;;;;;;;;;;;;;;;;;;5323043;28;19960;-75
2023/08/04 12:44:25;;;;;;;;;;;;;;;;;;5324124;28;19907;-75
2023/08/04 12:46:56;;;;;;;;;;;;;;;;;;5322456;28;19915;-74
2023/08/04 12:49:27;;;;;;;;;;;;;;;;;;5321579;28;19907;-75
2023/08/04 12:51:58;;;;;;;;;;;;;;;;;;5321930;28;19931;-75
2023/08/04 12:54:29;;;;;;;;;;;;;;;;;;5321747;28;19919;-76
2023/08/04 12:57:00;;;;;;;;;;;;;;;;;;5321372;28;19908;-75
2023/08/04 12:59:32;;;;;;;;;;;;;;;;;;5303247;28;19908;-76
2023/08/04 13:02:03;;;;;;;;;;;;;;;;;;5323611;28;20491;-76
2023/08/04 13:04:35;;;;;;;;;;;;;;;;;;5323043;28;19915;-76
2023/08/04 13:07:06;;;;;;;;;;;;;;;;;;5324102;28;19908;-76
2023/08/04 13:09:37;;;;;;;;;;;;;;;;;;5323218;28;19907;-75
2023/08/04 13:12:08;;;;;;;;;;;;;;;;;;5324331;28;19915;-76
2023/08/04 13:14:39;;;;;;;;;;;;;;;;;;5323653;28;19944;-74
2023/08/04 13:17:10;;;;;;;;;;;;;;;;;;5323476;28;19908;-74
2023/08/04 13:19:41;;;;;;;;;;;;;;;;;;5324545;28;20475;-74
2023/08/04 13:22:12;;;;;;;;;;;;;;;;;;5315196;28;19963;-73
2023/08/04 13:24:44;;;;;;;;;;;;;;;;;;5322537;28;19908;-73
2023/08/04 13:27:15;;;;;;;;;;;;;;;;;;5325887;28;19912;-73
2023/08/04 13:29:46;;;;;;;;;;;;;;;;;;5325929;27;19915;-74
2023/08/04 13:32:18;;;;;;;;;;;;;;;;;;5324467;28;20378;-73
2023/08/04 13:34:49;;;;;;;;;;;;;;;;;;5326197;28;20116;-74
2023/08/04 13:37:20;;;;;;;;;;;;;;;;;;5326665;28;20067;-74
2023/08/04 13:39:51;;;;;;;;;;;;;;;;;;5325619;28;19960;-74
2023/08/04 13:42:22;;;;;;;;;;;;;;;;;;5326779;28;19923;-72
2023/08/04 13:44:53;;;;;;;;;;;;;;;;;;5324943;28;19918;-72
2023/08/04 13:47:25;;;;;;;;;;;;;;;;;;5326570;28;20259;-73
2023/08/04 13:49:56;;;;;;;;;;;;;;;;;;5319629;28;19916;-73
2023/08/04 13:52:27;;;;;;;;;;;;;;;;;;5316780;28;20036;-72
2023/08/04 13:54:58;;;;;;;;;;;;;;;;;;5324415;28;20452;-74
2023/08/04 13:57:29;;;;;;;;;;;;;;;;;;5324997;28;19918;-75
2023/08/04 14:00:00;;;;;;;;;;;;;;;;;;5322587;28;19912;-74
2023/08/04 14:02:32;;;;;;;;;;;;;;;;;;5323033;28;19995;-74
2023/08/04 14:05:03;;;;;;;;;;;;;;;;;;5326062;28;19965;-74
2023/08/04 14:07:37;;;;;;;;;;;;;;;;;;5324400;28;19915;-74
2023/08/04 14:10:09;;;;;;;;;;;;;;;;;;5325861;28;20009;-74
2023/08/04 14:12:40;;;;;;;;;;;;;;;;;;5323498;28;19915;-74
2023/08/04 14:15:11;;;;;;;;;;;;;;;;;;5325217;28;19912;-74
2023/08/04 14:17:42;;;;;;;;;;;;;;;;;;5325144;27;19912;-73
2023/08/04 14:20:13;;;;;;;;;;;;;;;;;;5325992;28;19914;-75
2023/08/04 14:22:44;;;;;;;;;;;;;;;;;;5326325;28;19908;-73
2023/08/04 14:25:15;;;;;;;;;;;;;;;;;;5319940;28;20392;-73
2023/08/04 14:27:47;;;;;;;;;;;;;;;;;;5324775;28;20073;-74
2023/08/04 14:30:18;;;;;;;;;;;;;;;;;;5326558;27;20337;-73
2023/08/04 14:32:49;;;;;;;;;;;;;;;;;;5320281;28;19923;-71
2023/08/04 14:35:20;;;;;;;;;;;;;;;;;;5302786;28;19958;-73
2023/08/04 14:37:51;;;;;;;;;;;;;;;;;;5304293;28;20414;-74
2023/08/04 14:40:22;;;;;;;;;;;;;;;;;;5305468;28;19998;-74
2023/08/04 14:42:53;;;;;;;;;;;;;;;;;;5303339;28;19961;-73
2023/08/04 14:45:24;;;;;;;;;;;;;;;;;;5303050;28;20248;-73
2023/08/04 14:47:55;;;;;;;;;;;;;;;;;;5304068;28;20379;-73
2023/08/04 14:50:27;;;;;;;;;;;;;;;;;;5304696;28;20007;-73
2023/08/04 14:52:58;;;;;;;;;;;;;;;;;;5304674;28;19961;-73
2023/08/04 14:55:29;;;;;;;;;;;;;;;;;;5304009;28;19909;-74
2023/08/04 14:58:00;;;;;;;;;;;;;;;;;;5304839;28;20259;-73
2023/08/04 15:00:31;;;;;;;;;;;;;;;;;;5304453;28;19954;-73
2023/08/04 15:03:02;;;;;;;;;;;;;;;;;;5304185;28;20275;-72
2023/08/04 15:05:33;;;;;;;;;;;;;;;;;;5304151;28;19908;-73
2023/08/04 15:08:04;;;;;;;;;;;;;;;;;;5304653;28;20162;-73
2023/08/04 15:10:35;;;;;;;;;;;;;;;;;;5303444;28;19958;-73
2023/08/04 15:13:06;;;;;;;;;;;;;;;;;;5304457;28;20029;-73
2023/08/04 15:15:38;;;;;;;;;;;;;;;;;;5323457;28;19911;-73
2023/08/04 15:18:09;;;;;;;;;;;;;;;;;;5324995;28;19914;-73
2023/08/04 15:20:40;;;;;;;;;;;;;;;;;;5325036;28;19908;-72
2023/08/04 15:23:11;;;;;;;;;;;;;;;;;;5324980;28;20023;-73
2023/08/04 15:25:42;;;;;;;;;;;;;;;;;;5325078;28;19962;-73
2023/08/04 15:28:13;;;;;;;;;;;;;;;;;;5325680;28;19908;-74
2023/08/04 15:30:44;;;;;;;;;;;;;;;;;;5324124;28;19914;-74
2023/08/04 15:33:15;;;;;;;;;;;;;;;;;;5325095;28;19923;-73
2023/08/04 15:35:47;;;;;;;;;;;;;;;;;;5324934;28;19995;-73
2023/08/04 15:38:18;;;;;;;;;;;;;;;;;;5324655;28;19904;-74
2023/08/04 15:40:49;;;;;;;;;;;;;;;;;;5324699;28;20393;-73
2023/08/04 15:43:21;;;;;;;;;;;;;;;;;;5324382;28;19956;-73
2023/08/04 15:45:52;;;;;;;;;;;;;;;;;;5323918;28;19907;-73
2023/08/04 15:48:23;;;;;;;;;;;;;;;;;;5318608;28;20285;-73
2023/08/04 15:50:59;;;;;;;;;;;;;;;;;;5323631;28;19908;-73
2023/08/04 15:53:30;;;;;;;;;;;;;;;;;;5323214;28;19923;-73
2023/08/04 15:56:01;;;;;;;;;;;;;;;;;;5324949;28;20010;-72
2023/08/04 15:58:32;;;;;;;;;;;;;;;;;;5322072;28;19953;-73
2023/08/04 16:01:03;;;;;;;;;;;;;;;;;;5324493;28;20400;-73
2023/08/04 16:03:35;;;;;;;;;;;;;;;;;;5323740;28;20327;-74
2023/08/04 16:06:06;;;;;;;;;;;;;;;;;;5323876;28;19964;-72
2023/08/04 16:08:37;;;;;;;;;;;;;;;;;;5323904;28;19916;-74
2023/08/04 16:11:08;;;;;;;;;;;;;;;;;;5324496;28;19919;-71
2023/08/04 16:13:39;;;;;;;;;;;;;;;;;;5322501;28;20328;-73
2023/08/04 16:16:10;;;;;;;;;;;;;;;;;;5323326;28;19907;-73
2023/08/04 16:18:42;;;;;;;;;;;;;;;;;;5323953;28;19990;-73
2023/08/04 16:21:13;;;;;;;;;;;;;;;;;;5323890;28;19941;-73
2023/08/04 16:23:44;;;;;;;;;;;;;;;;;;5324237;28;19961;-73
2023/08/04 16:26:15;;;;;;;;;;;;;;;;;;5324470;28;19908;-73
2023/08/04 16:28:46;;;;;;;;;;;;;;;;;;5323289;28;20433;-73
2023/08/04 16:31:17;;;;;;;;;;;;;;;;;;5324564;28;19911;-74
2023/08/04 16:33:54;;;;;;;;;;;;;;;;;;5322816;28;19973;-73
2023/08/04 16:36:25;;;;;;;;;;;;;;;;;;5324433;28;20351;-73
2023/08/04 16:38:56;;;;;;;;;;;;;;;;;;5324378;28;19919;-73
2023/08/04 16:41:27;;;;;;;;;;;;;;;;;;5323528;28;20274;-74
2023/08/04 16:43:58;;;;;;;;;;;;;;;;;;5324119;28;19908;-73
2023/08/04 16:46:29;;;;;;;;;;;;;;;;;;5324141;28;19908;-74
2023/08/04 16:49:00;;;;;;;;;;;;;;;;;;5323638;28;19915;-74
2023/08/04 16:51:31;;;;;;;;;;;;;;;;;;5323781;28;20397;-73
2023/08/04 16:54:02;;;;;;;;;;;;;;;;;;5324048;28;20018;-74
2023/08/04 16:56:34;;;;;;;;;;;;;;;;;;5327241;28;20061;-74
2023/08/04 16:59:05;;;;;;;;;;;;;;;;;;5328761;28;20370;-72
2023/08/04 17:01:36;;;;;;;;;;;;;;;;;;5327045;28;19919;-72
2023/08/04 17:04:07;;;;;;;;;;;;;;;;;;5328812;28;20374;-72
2023/08/04 17:06:38;;;;;;;;;;;;;;;;;;5327822;28;20010;-72
2023/08/04 17:09:09;;;;;;;;;;;;;;;;;;5327792;28;19996;-73
2023/08/04 17:11:40;;;;;;;;;;;;;;;;;;5327914;28;20271;-72